Terminal Aerodrome Forecast
Issued by NWS

Home | Current Version | Previous Version | Text Only | Print | Product List | Glossary On
Versions: 1 2 3 4 5 6 7 8 9 10 11 12 13 14 15 16 17 18 19 20 21 22 23 24
000
FTUS41 KBGM 020400 AAA
TAFELM
TAF AMD
KELM 020424Z 0204/0224 VRB03KT 5SM BR BKN120
      TEMPO 0204/0207 1 1/2SM BR BKN005
     FM020700 00000KT 3SM BR FEW002 BKN150
      TEMPO 0207/0211 1/2SM FG VV002
     FM021100 24009KT P6SM BKN045
      TEMPO 0211/0213 1SM BR BKN002
     FM021800 24009KT P6SM BKN045 BKN100 PROB30 0220/0224 3SM TSRA
      BR BKN025CB=

USA.gov is the U.S. government's official web portal to all federal, state and local government web resources and services.